createdAt,value
2022-10-05T00:04:15.308Z,14.19
2022-10-05T00:09:22.068Z,14.20
2022-10-05T00:14:30.208Z,14.14
2022-10-05T00:19:34.996Z,13.99
2022-10-05T00:24:38.882Z,14.08
2022-10-05T00:29:41.459Z,14.07
2022-10-05T00:34:45.315Z,14.08
2022-10-05T00:39:50.489Z,14.06
2022-10-05T00:44:59.686Z,14.08
2022-10-05T00:50:32.232Z,14.07
2022-10-05T00:55:49.205Z,14.04
2022-10-05T01:01:00.330Z,14.05
2022-10-05T01:06:11.739Z,13.96
2022-10-05T01:11:24.215Z,14.01
2022-10-05T01:16:31.728Z,13.97
2022-10-05T01:21:42.480Z,13.91
2022-10-05T01:27:05.483Z,13.87
2022-10-05T01:32:18.409Z,13.84
2022-10-05T01:37:28.143Z,13.82
2022-10-05T01:42:42.734Z,13.79
2022-10-05T01:47:50.691Z,13.64
2022-10-05T01:53:00.732Z,13.60
2022-10-05T01:58:12.330Z,13.64
2022-10-05T02:03:20.257Z,13.52
2022-10-05T02:08:26.551Z,13.70
2022-10-05T02:13:35.719Z,13.76
2022-10-05T02:18:48.048Z,13.81
2022-10-05T02:23:56.461Z,13.79
2022-10-05T02:29:03.418Z,13.75
2022-10-05T02:34:25.408Z,13.80
2022-10-05T02:39:37.603Z,13.63
2022-10-05T02:44:46.755Z,13.85
2022-10-05T02:49:54.717Z,13.79
2022-10-05T02:55:06.402Z,13.72
2022-10-05T03:00:14.355Z,13.59
2022-10-05T03:05:23.035Z,13.80
2022-10-05T03:10:35.020Z,13.83
2022-10-05T03:15:53.661Z,13.83
2022-10-05T03:21:09.772Z,13.88
2022-10-05T03:26:24.224Z,13.89
2022-10-05T03:31:37.359Z,13.78
2022-10-05T03:36:49.496Z,13.90
2022-10-05T03:42:00.224Z,13.96
2022-10-05T03:47:15.549Z,14.00
2022-10-05T03:52:27.003Z,14.06
2022-10-05T03:57:34.120Z,14.10
2022-10-05T04:02:44.631Z,14.16
2022-10-05T04:07:55.415Z,14.18
2022-10-05T04:13:03.819Z,14.18
2022-10-05T04:18:15.670Z,14.16
2022-10-05T04:23:29.292Z,14.13
2022-10-05T04:28:45.935Z,14.28
2022-10-05T04:33:59.087Z,14.29
2022-10-05T04:39:15.901Z,14.29
2022-10-05T04:44:39.339Z,14.34
2022-10-05T04:50:01.707Z,14.35
2022-10-05T04:55:18.014Z,14.28
2022-10-05T05:00:25.775Z,14.24
2022-10-05T05:05:58.613Z,14.28
2022-10-05T05:11:24.610Z,14.32
2022-10-05T05:16:34.618Z,14.13
2022-10-05T05:21:47.744Z,14.15
2022-10-05T05:27:05.047Z,14.36
2022-10-05T05:32:15.149Z,14.36
2022-10-05T05:37:29.992Z,14.39
2022-10-05T05:42:43.134Z,14.42
2022-10-05T05:47:53.675Z,14.46
2022-10-05T05:53:03.423Z,14.50
2022-10-05T05:58:15.740Z,14.48
2022-10-05T06:03:24.791Z,14.47
2022-10-05T06:08:35.432Z,14.53
2022-10-05T06:13:48.331Z,14.54
2022-10-05T06:18:56.612Z,14.53
2022-10-05T06:24:03.618Z,14.57
2022-10-05T06:29:15.276Z,14.65
2022-10-05T06:34:33.078Z,14.67
2022-10-05T06:39:53.333Z,14.65
2022-10-05T06:45:02.895Z,14.70
2022-10-05T06:50:23.940Z,14.74
2022-10-05T06:55:56.616Z,14.70
2022-10-05T07:01:10.508Z,14.71
2022-10-05T07:06:17.641Z,14.75
2022-10-05T07:11:42.177Z,14.78
2022-10-05T07:17:00.947Z,14.85
2022-10-05T07:22:27.404Z,14.90
2022-10-05T07:27:36.437Z,14.88
2022-10-05T07:32:59.698Z,14.93
2022-10-05T07:38:12.114Z,14.91
2022-10-05T07:43:35.903Z,14.95
2022-10-05T07:49:03.068Z,14.99
2022-10-05T07:54:21.435Z,14.97
2022-10-05T07:59:31.620Z,15.08
2022-10-05T08:04:46.043Z,15.09
2022-10-05T08:09:56.113Z,15.19
2022-10-05T08:15:01.427Z,15.22
2022-10-05T08:20:29.189Z,15.33
2022-10-05T08:25:46.035Z,15.35
2022-10-05T08:30:56.766Z,15.28
2022-10-05T08:36:07.621Z,15.40
2022-10-05T08:41:35.351Z,15.59
2022-10-05T08:47:05.323Z,15.66
2022-10-05T08:52:28.817Z,15.75
2022-10-05T08:57:53.530Z,15.80
2022-10-05T09:03:19.946Z,15.88
2022-10-05T09:08:42.696Z,15.99
2022-10-05T09:14:19.218Z,16.05
2022-10-05T09:19:44.286Z,16.14
2022-10-05T09:24:56.949Z,16.22
2022-10-05T09:30:20.593Z,16.34
2022-10-05T09:35:54.747Z,16.22
2022-10-05T09:41:37.092Z,16.51
2022-10-05T09:46:56.317Z,16.60
2022-10-05T09:52:22.216Z,16.75
2022-10-05T09:57:57.478Z,16.88
2022-10-05T10:03:25.682Z,16.95
2022-10-05T10:08:43.156Z,17.02
2022-10-05T10:14:03.859Z,17.10
2022-10-05T10:19:36.859Z,17.21
2022-10-05T10:25:06.977Z,17.29
2022-10-05T10:30:28.466Z,17.36
2022-10-05T10:35:36.707Z,17.44
2022-10-05T10:40:48.446Z,17.45
2022-10-05T10:46:00.713Z,17.55
2022-10-05T10:51:14.483Z,17.67
2022-10-05T10:56:55.063Z,17.90
2022-10-05T11:02:37.195Z,18.13
2022-10-05T11:08:03.504Z,18.26
2022-10-05T11:13:25.596Z,18.45
2022-10-05T11:18:59.274Z,18.48
2022-10-05T11:24:50.123Z,18.61
2022-10-05T11:30:21.145Z,18.66
2022-10-05T11:35:48.852Z,18.97
2022-10-05T11:41:22.543Z,19.24
2022-10-05T11:46:30.979Z,19.54
2022-10-05T11:51:59.215Z,19.48
2022-10-05T11:57:06.766Z,19.59
2022-10-05T12:02:44.327Z,19.88
2022-10-05T12:07:56.880Z,20.08
2022-10-05T12:13:11.481Z,20.39
2022-10-05T12:18:23.882Z,20.63
2022-10-05T12:23:35.804Z,20.84
2022-10-05T12:28:44.827Z,21.02
2022-10-05T12:33:56.709Z,21.18
2022-10-05T12:39:04.933Z,21.31
2022-10-05T12:44:17.998Z,21.65
2022-10-05T12:49:35.902Z,21.74
2022-10-05T12:54:47.851Z,21.72
2022-10-05T12:59:57.115Z,22.03
2022-10-05T13:05:18.917Z,22.16
2022-10-05T13:10:32.099Z,22.49
2022-10-05T13:15:46.402Z,22.43
2022-10-05T13:21:04.343Z,22.64
2022-10-05T13:26:11.820Z,22.45
2022-10-05T13:31:22.077Z,22.81
2022-10-05T13:36:36.628Z,22.69
2022-10-05T13:41:49.489Z,22.63
2022-10-05T13:47:00.687Z,22.47
2022-10-05T13:52:19.841Z,22.19
2022-10-05T13:57:35.820Z,22.12
2022-10-05T14:02:41.679Z,22.08
2022-10-05T14:07:55.760Z,22.19
2022-10-05T14:12:58.373Z,21.61
2022-10-05T14:18:01.128Z,21.93
2022-10-05T14:23:17.365Z,21.89
2022-10-05T14:28:29.482Z,21.80
2022-10-05T14:33:34.117Z,21.74
2022-10-05T14:38:53.436Z,21.74
2022-10-05T14:44:02.092Z,21.61
2022-10-05T14:49:17.587Z,21.57
2022-10-05T14:54:28.306Z,21.55
2022-10-05T14:59:53.744Z,21.35
2022-10-05T15:05:02.348Z,21.24
2022-10-05T15:10:29.346Z,21.18
2022-10-05T15:15:37.888Z,21.19
2022-10-05T15:20:52.314Z,21.08
2022-10-05T15:26:13.252Z,20.98
2022-10-05T15:31:26.192Z,20.90
2022-10-05T15:36:36.667Z,21.03
2022-10-05T15:41:56.504Z,20.95
2022-10-05T15:47:06.832Z,20.91
2022-10-05T15:52:23.779Z,20.87
2022-10-05T15:57:37.193Z,20.96
2022-10-05T16:02:45.137Z,20.79
2022-10-05T16:08:10.871Z,20.47
2022-10-05T16:13:29.651Z,20.49
2022-10-05T16:18:49.946Z,20.57
2022-10-05T16:24:10.571Z,20.50
2022-10-05T16:29:26.091Z,20.52
2022-10-05T16:34:40.140Z,20.39
2022-10-05T16:39:52.868Z,20.13
2022-10-05T16:45:06.628Z,19.93
2022-10-05T16:50:20.313Z,19.66
2022-10-05T16:55:31.427Z,19.55
2022-10-05T17:00:51.848Z,19.30
2022-10-05T17:06:13.669Z,19.13
2022-10-05T17:11:29.434Z,19.01
2022-10-05T17:16:45.392Z,18.98
2022-10-05T17:21:58.761Z,19.06
2022-10-05T17:27:17.703Z,18.93
2022-10-05T17:32:41.139Z,18.98
2022-10-05T17:38:00.571Z,18.79
2022-10-05T17:43:23.880Z,18.80
2022-10-05T17:49:07.537Z,18.68
2022-10-05T17:54:39.055Z,18.72
2022-10-05T17:59:48.330Z,18.73
2022-10-05T18:05:03.098Z,18.75
2022-10-05T18:10:25.467Z,18.74
2022-10-05T18:15:48.930Z,18.80
2022-10-05T18:21:20.366Z,18.82
2022-10-05T18:26:33.298Z,18.66
2022-10-05T18:31:45.173Z,18.71
2022-10-05T18:37:13.343Z,18.59
2022-10-05T18:42:27.165Z,18.64
2022-10-05T18:47:39.020Z,18.55
2022-10-05T18:52:55.842Z,18.71
2022-10-05T18:58:14.565Z,18.72
2022-10-05T19:03:24.269Z,18.71
2022-10-05T19:08:37.666Z,18.69
2022-10-05T19:13:51.874Z,18.74
2022-10-05T19:19:13.810Z,18.62
2022-10-05T19:24:43.097Z,18.78
2022-10-05T19:29:58.522Z,18.72
2022-10-05T19:35:14.047Z,18.71
2022-10-05T19:40:26.355Z,18.68
2022-10-05T19:45:32.775Z,18.69
2022-10-05T19:50:37.752Z,18.64
2022-10-05T19:55:43.525Z,18.57
2022-10-05T20:00:55.320Z,18.60
2022-10-05T20:06:00.056Z,18.55
2022-10-05T20:11:14.766Z,18.49
2022-10-05T20:16:46.230Z,18.53
2022-10-05T20:21:50.611Z,18.53
2022-10-05T20:27:16.038Z,18.52
2022-10-05T20:32:19.591Z,18.43
2022-10-05T20:37:22.149Z,18.71
2022-10-05T20:42:26.754Z,18.77
2022-10-05T20:47:29.340Z,18.77
2022-10-05T20:52:32.435Z,18.84
2022-10-05T20:57:38.590Z,18.85
2022-10-05T21:02:41.378Z,18.81
2022-10-05T21:07:43.931Z,18.87
2022-10-05T21:12:47.969Z,18.85
2022-10-05T21:17:50.583Z,18.99
2022-10-05T21:22:53.082Z,18.99
2022-10-05T21:27:56.990Z,19.14
2022-10-05T21:32:59.543Z,19.09
2022-10-05T21:38:02.068Z,18.30
2022-10-05T21:43:06.184Z,18.33
2022-10-05T21:48:09.162Z,18.07
2022-10-05T21:53:15.813Z,18.20
2022-10-05T21:58:22.748Z,18.04
2022-10-05T22:03:25.632Z,17.97
2022-10-05T22:08:30.547Z,17.86
2022-10-05T22:13:41.887Z,17.75
2022-10-05T22:18:44.964Z,17.67
2022-10-05T22:23:48.117Z,17.88
2022-10-05T22:28:55.034Z,18.01
2022-10-05T22:33:57.653Z,17.58
2022-10-05T22:39:00.152Z,17.52
2022-10-05T22:44:04.236Z,17.01
2022-10-05T22:49:06.877Z,16.88
2022-10-05T22:54:09.589Z,16.77
2022-10-05T22:59:14.143Z,16.68
2022-10-05T23:04:16.671Z,16.65
2022-10-05T23:09:19.759Z,16.20
2022-10-05T23:14:23.959Z,16.08
2022-10-05T23:19:26.541Z,15.85
2022-10-05T23:24:29.327Z,16.05
2022-10-05T23:29:33.581Z,16.19
2022-10-05T23:34:36.121Z,16.21
2022-10-05T23:39:38.866Z,15.98
2022-10-05T23:44:42.704Z,16.04
2022-10-05T23:49:45.515Z,15.87
2022-10-05T23:54:48.076Z,15.86
2022-10-05T23:59:52.082Z,15.88
